createdAt,value
2019-01-11T00:00:49.799Z,31.20
2019-01-11T00:03:19.205Z,31.53
2019-01-11T00:05:48.363Z,31.47
2019-01-11T00:08:17.602Z,28.67
2019-01-11T00:10:46.792Z,29.27
2019-01-11T00:13:16.019Z,28.73
2019-01-11T00:15:45.264Z,29.80
2019-01-11T00:18:14.549Z,28.90
2019-01-11T00:20:43.791Z,30.67
2019-01-11T00:23:13.076Z,29.33
2019-01-11T00:25:42.348Z,30.47
2019-01-11T00:28:11.576Z,31.37
2019-01-11T00:30:40.800Z,30.70
2019-01-11T00:33:10.004Z,33.70
2019-01-11T00:35:39.279Z,32.13
2019-01-11T00:38:08.528Z,30.70
2019-01-11T00:40:37.728Z,26.40
2019-01-11T00:43:06.936Z,29.63
2019-01-11T00:45:36.196Z,30.17
2019-01-11T00:48:05.661Z,29.83
2019-01-11T00:50:34.892Z,32.07
2019-01-11T00:53:04.127Z,31.87
2019-01-11T00:55:33.432Z,31.60
2019-01-11T00:58:02.647Z,28.77
2019-01-11T01:00:31.848Z,29.50
2019-01-11T01:03:01.063Z,31.20
2019-01-11T01:05:30.266Z,30.53
2019-01-11T01:07:59.446Z,28.70
2019-01-11T01:10:28.668Z,26.80
2019-01-11T01:12:57.999Z,27.77
2019-01-11T01:15:27.183Z,26.17
2019-01-11T01:17:56.377Z,24.37
2019-01-11T01:20:25.680Z,23.90
2019-01-11T01:22:54.905Z,26.53
2019-01-11T01:25:24.112Z,25.13
2019-01-11T01:27:53.347Z,26.33
2019-01-11T01:30:22.515Z,24.83
2019-01-11T01:32:51.777Z,24.43
2019-01-11T01:35:21.012Z,25.37
2019-01-11T01:37:50.191Z,25.07
2019-01-11T01:40:19.440Z,22.20
2019-01-11T01:42:48.671Z,22.10
2019-01-11T01:45:18.293Z,21.40
2019-01-11T01:47:47.484Z,21.97
2019-01-11T01:50:16.807Z,20.97
2019-01-11T01:52:46.023Z,21.70
2019-01-11T01:55:15.824Z,19.83
2019-01-11T01:57:45.042Z,21.63
2019-01-11T02:00:17.224Z,21.73
2019-01-11T02:02:47.606Z,20.67
2019-01-11T02:05:17.204Z,20.00
2019-01-11T02:07:46.375Z,19.97
2019-01-11T02:10:16.008Z,19.43
2019-01-11T02:12:45.260Z,19.07
2019-01-11T02:15:14.559Z,20.27
2019-01-11T02:17:43.779Z,19.47
2019-01-11T02:20:15.822Z,20.27
2019-01-11T02:22:45.562Z,20.07
2019-01-11T02:25:15.895Z,20.00
2019-01-11T02:27:45.100Z,14.33
2019-01-11T02:30:19.874Z,18.00
2019-01-11T02:32:53.038Z,19.20
2019-01-11T02:35:20.177Z,20.40
2019-01-11T02:37:49.638Z,20.70
2019-01-11T02:40:18.869Z,20.70
2019-01-11T02:42:48.073Z,20.17
2019-01-11T02:45:19.319Z,20.20
2019-01-11T02:47:48.551Z,21.83
2019-01-11T02:50:17.837Z,21.07
2019-01-11T02:52:47.173Z,22.27
2019-01-11T02:55:16.369Z,21.83
2019-01-11T02:57:45.527Z,21.60
2019-01-11T03:00:17.621Z,22.47
2019-01-11T03:02:47.143Z,21.37
2019-01-11T03:05:16.479Z,21.97
2019-01-11T03:07:46.398Z,22.10
2019-01-11T03:10:22.739Z,22.07
2019-01-11T03:12:51.920Z,24.10
2019-01-11T03:15:21.660Z,24.50
2019-01-11T03:17:50.996Z,24.30
2019-01-11T03:20:20.364Z,24.87
2019-01-11T03:22:49.548Z,25.67
2019-01-11T03:25:18.822Z,25.73
2019-01-11T03:27:48.176Z,23.60
2019-01-11T03:30:19.385Z,25.67
2019-01-11T03:32:48.686Z,25.93
2019-01-11T03:35:22.495Z,25.50
2019-01-11T03:37:52.187Z,21.83
2019-01-11T03:40:23.236Z,25.90
2019-01-11T03:42:52.691Z,23.70
2019-01-11T03:45:23.687Z,26.43
2019-01-11T03:47:52.936Z,25.13
2019-01-11T03:50:23.010Z,22.93
2019-01-11T03:52:52.247Z,22.37
2019-01-11T03:55:21.584Z,27.67
2019-01-11T03:57:50.779Z,21.87
2019-01-11T04:00:22.307Z,26.97
2019-01-11T04:02:51.541Z,22.73
2019-01-11T04:05:20.859Z,25.07
2019-01-11T04:07:50.296Z,27.10
2019-01-11T04:10:21.353Z,25.40
2019-01-11T04:12:50.553Z,28.10
2019-01-11T04:15:20.532Z,25.50
2019-01-11T04:18:07.770Z,27.33
2019-01-11T04:20:36.952Z,24.83
2019-01-11T04:23:06.149Z,25.03
2019-01-11T04:25:45.809Z,26.40
2019-01-11T04:28:15.021Z,25.60
2019-01-11T04:30:44.251Z,25.87
2019-01-11T04:33:13.537Z,29.03
2019-01-11T04:35:42.805Z,27.00
2019-01-11T04:38:12.025Z,28.77
2019-01-11T04:40:41.253Z,26.87
2019-01-11T04:43:10.482Z,28.37
2019-01-11T04:45:39.677Z,26.70
2019-01-11T04:48:08.973Z,28.50
2019-01-11T04:50:38.198Z,28.03
2019-01-11T04:53:07.442Z,29.80
2019-01-11T04:55:36.664Z,27.10
2019-01-11T04:58:06.812Z,28.33
2019-01-11T05:00:36.116Z,32.73
2019-01-11T05:03:05.361Z,30.53
2019-01-11T05:05:34.600Z,30.70
2019-01-11T05:08:03.808Z,18.50
2019-01-11T05:10:33.052Z,29.80
2019-01-11T05:13:30.407Z,29.90
2019-01-11T05:15:59.724Z,30.87
2019-01-11T05:18:29.027Z,28.67
2019-01-11T05:20:58.333Z,32.70
2019-01-11T05:23:27.533Z,32.77
2019-01-11T05:25:57.708Z,27.33
2019-01-11T05:28:27.214Z,33.63
2019-01-11T05:30:57.721Z,33.97
2019-01-11T05:33:26.936Z,32.13
2019-01-11T05:35:56.176Z,30.23
2019-01-11T05:38:25.413Z,32.03
2019-01-11T05:40:54.669Z,35.13
2019-01-11T05:43:23.881Z,31.87
2019-01-11T05:45:53.224Z,31.60
2019-01-11T05:48:22.768Z,31.67
2019-01-11T05:50:52.483Z,33.47
2019-01-11T05:53:21.717Z,30.90
2019-01-11T05:55:52.540Z,31.30
2019-01-11T05:58:38.948Z,32.53
2019-01-11T06:01:08.172Z,32.57
2019-01-11T06:03:37.401Z,33.60
2019-01-11T06:06:07.293Z,34.13
2019-01-11T06:08:37.257Z,34.13
2019-01-11T06:11:06.478Z,32.83
2019-01-11T06:13:35.695Z,32.50
2019-01-11T06:16:05.958Z,33.60
2019-01-11T06:18:35.168Z,28.07
2019-01-11T06:21:04.388Z,29.57
2019-01-11T06:23:33.616Z,32.80
2019-01-11T06:26:02.822Z,31.60
2019-01-11T06:28:32.145Z,30.00
2019-01-11T06:31:01.356Z,29.87
2019-01-11T06:33:30.597Z,31.17
2019-01-11T06:36:00.072Z,28.57
2019-01-11T06:38:29.411Z,30.47
2019-01-11T06:40:58.633Z,29.93
2019-01-11T06:43:27.940Z,28.03
2019-01-11T06:45:57.135Z,29.80
2019-01-11T06:48:51.377Z,30.43
2019-01-11T06:51:20.609Z,28.83
2019-01-11T06:53:49.852Z,30.77
2019-01-11T06:56:19.104Z,30.20
2019-01-11T06:58:48.336Z,30.27
2019-01-11T07:01:17.551Z,28.67
2019-01-11T07:03:46.800Z,25.90
2019-01-11T07:06:16.010Z,28.40
2019-01-11T07:08:45.625Z,28.80
2019-01-11T07:11:14.949Z,29.37
2019-01-11T07:13:44.175Z,27.17
2019-01-11T07:16:13.858Z,26.13
2019-01-11T07:18:43.100Z,27.47
2019-01-11T07:21:12.483Z,26.43
2019-01-11T07:23:41.841Z,26.10
2019-01-11T07:26:11.225Z,26.83
2019-01-11T07:28:40.480Z,25.27
2019-01-11T07:31:19.416Z,25.43
2019-01-11T07:33:48.713Z,25.60
2019-01-11T07:36:32.920Z,24.37
2019-01-11T07:39:04.517Z,23.47
2019-01-11T07:41:33.761Z,26.20
2019-01-11T07:44:03.027Z,26.70
2019-01-11T07:46:32.360Z,25.47
2019-01-11T07:49:01.579Z,27.80
2019-01-11T07:51:30.787Z,28.83
2019-01-11T07:54:00.034Z,25.77
2019-01-11T07:56:29.373Z,26.67
2019-01-11T07:58:58.668Z,24.33
2019-01-11T08:01:29.624Z,25.93
2019-01-11T08:03:58.895Z,24.90
2019-01-11T08:06:28.136Z,26.17
2019-01-11T08:08:57.337Z,24.70
2019-01-11T08:11:26.576Z,25.77
2019-01-11T08:13:55.836Z,23.30
2019-01-11T08:16:25.188Z,21.97
2019-01-11T08:18:54.384Z,22.73
2019-01-11T08:21:23.724Z,22.87
2019-01-11T08:23:52.934Z,20.77
2019-01-11T08:26:22.265Z,19.00
2019-01-11T08:28:51.547Z,19.10
2019-01-11T08:31:20.784Z,19.20
2019-01-11T08:33:50.109Z,17.90
2019-01-11T08:36:19.300Z,16.60
2019-01-11T08:38:48.568Z,16.60
2019-01-11T08:41:18.713Z,13.77
2019-01-11T08:43:47.985Z,14.20
2019-01-11T08:46:17.280Z,12.80
2019-01-11T08:48:46.489Z,12.17
2019-01-11T08:51:17.491Z,12.83
2019-01-11T08:53:46.824Z,11.27
2019-01-11T08:56:16.090Z,10.33
2019-01-11T08:58:46.218Z,9.83
2019-01-11T09:01:15.493Z,10.03
2019-01-11T09:03:45.069Z,10.20
2019-01-11T09:06:14.321Z,8.77
2019-01-11T09:08:43.528Z,8.63
2019-01-11T09:11:12.761Z,7.70
2019-01-11T09:13:42.062Z,9.63
2019-01-11T09:16:11.280Z,7.63
2019-01-11T09:18:46.235Z,7.73
2019-01-11T09:21:15.458Z,6.43
2019-01-11T09:23:44.732Z,6.70
2019-01-11T09:26:13.965Z,6.20
2019-01-11T09:28:43.212Z,6.20
2019-01-11T09:31:12.424Z,5.03
2019-01-11T09:33:41.703Z,4.90
2019-01-11T09:36:10.892Z,5.00
2019-01-11T09:38:40.136Z,5.13
2019-01-11T09:41:09.508Z,4.67
2019-01-11T09:43:38.740Z,5.17
2019-01-11T09:46:07.979Z,4.47
2019-01-11T09:48:37.363Z,3.77
2019-01-11T09:51:06.560Z,3.53
2019-01-11T09:53:35.882Z,3.03
2019-01-11T09:56:05.436Z,4.73
2019-01-11T09:58:35.328Z,3.63
2019-01-11T10:01:04.564Z,3.70
2019-01-11T10:03:33.800Z,3.67
2019-01-11T10:06:03.101Z,3.10
2019-01-11T10:08:32.359Z,3.83
2019-01-11T10:11:01.578Z,3.33
2019-01-11T10:13:30.805Z,3.60
2019-01-11T10:16:00.045Z,3.33
2019-01-11T10:18:29.300Z,3.67
2019-01-11T10:20:58.508Z,3.90
2019-01-11T10:23:27.730Z,3.57
2019-01-11T10:25:56.989Z,2.40
2019-01-11T10:28:26.211Z,2.20
2019-01-11T10:31:00.642Z,2.40
2019-01-11T10:33:26.400Z,2.53
2019-01-11T10:35:55.653Z,4.37
2019-01-11T10:38:24.864Z,2.37
2019-01-11T10:40:54.077Z,1.73
2019-01-11T10:43:23.447Z,2.00
2019-01-11T10:45:52.760Z,1.60
2019-01-11T10:48:21.994Z,1.97
2019-01-11T10:50:51.284Z,1.90
2019-01-11T10:53:20.662Z,2.37
2019-01-11T10:55:50.113Z,1.90
2019-01-11T10:58:19.353Z,1.43
2019-01-11T11:00:48.798Z,2.07
2019-01-11T11:03:18.215Z,2.50
2019-01-11T11:05:47.486Z,1.83
2019-01-11T11:08:16.759Z,2.10
2019-01-11T11:10:46.091Z,2.23
2019-01-11T11:13:15.357Z,2.00
2019-01-11T11:15:47.147Z,2.13
2019-01-11T11:18:16.372Z,2.30
2019-01-11T11:20:45.569Z,1.63
2019-01-11T11:23:14.804Z,1.57
2019-01-11T11:25:44.020Z,1.60
2019-01-11T11:28:13.313Z,1.40
2019-01-11T11:30:42.502Z,2.03
2019-01-11T11:33:11.875Z,1.60
2019-01-11T11:35:41.187Z,2.13
2019-01-11T11:38:10.412Z,1.50
2019-01-11T11:40:39.696Z,1.87
2019-01-11T11:43:09.121Z,1.87
2019-01-11T11:45:38.479Z,1.63
2019-01-11T11:48:07.704Z,2.13
2019-01-11T11:50:37.040Z,1.80
2019-01-11T11:53:06.256Z,1.93
2019-01-11T11:55:35.572Z,1.57
2019-01-11T11:58:04.801Z,1.77
2019-01-11T12:00:34.006Z,1.67
2019-01-11T12:03:03.213Z,1.40
2019-01-11T12:05:32.434Z,1.30
2019-01-11T12:08:01.684Z,1.87
2019-01-11T12:10:30.913Z,1.70
2019-01-11T12:13:00.104Z,1.37
2019-01-11T12:15:29.404Z,2.13
2019-01-11T12:17:58.697Z,1.80
2019-01-11T12:20:32.667Z,1.57
2019-01-11T12:23:01.868Z,1.40
2019-01-11T12:25:31.120Z,1.33
2019-01-11T12:28:00.380Z,1.30
2019-01-11T12:30:29.704Z,1.60
2019-01-11T12:32:58.905Z,1.47
2019-01-11T12:35:28.200Z,1.67
2019-01-11T12:37:57.605Z,1.27
2019-01-11T12:40:26.768Z,1.10
2019-01-11T12:42:56.040Z,1.20
2019-01-11T12:45:25.372Z,1.40
2019-01-11T12:47:54.696Z,1.27
2019-01-11T12:50:27.509Z,1.30
2019-01-11T12:52:56.707Z,1.40
2019-01-11T12:55:25.928Z,1.20
2019-01-11T12:57:55.138Z,1.27
2019-01-11T13:00:24.340Z,1.30
2019-01-11T13:02:53.549Z,1.70
2019-01-11T13:05:22.878Z,1.30
2019-01-11T13:07:52.103Z,1.40
2019-01-11T13:10:21.820Z,1.90
2019-01-11T13:12:51.013Z,1.60
2019-01-11T13:15:22.070Z,1.47
2019-01-11T13:17:51.269Z,0.73
2019-01-11T13:20:21.707Z,1.40
2019-01-11T13:22:51.320Z,1.50
2019-01-11T13:25:20.674Z,0.97
2019-01-11T13:27:49.938Z,1.50
2019-01-11T13:30:20.044Z,1.37
2019-01-11T13:32:49.312Z,1.13
2019-01-11T13:35:18.613Z,1.57
2019-01-11T13:37:48.104Z,1.70
2019-01-11T13:40:22.570Z,1.60
2019-01-11T13:42:51.948Z,1.90
2019-01-11T13:45:22.497Z,1.90
2019-01-11T13:47:52.052Z,2.23
2019-01-11T13:50:40.480Z,2.00
2019-01-11T13:53:12.052Z,2.53
2019-01-11T13:55:41.372Z,2.30
2019-01-11T13:58:11.147Z,3.00
2019-01-11T14:00:40.687Z,2.27
2019-01-11T14:03:10.026Z,3.43
2019-01-11T14:05:39.262Z,3.17
2019-01-11T14:08:08.500Z,3.53
2019-01-11T14:10:37.744Z,3.27
2019-01-11T14:13:07.008Z,3.80
2019-01-11T14:15:36.294Z,2.70
2019-01-11T14:18:06.660Z,2.90
2019-01-11T14:20:36.181Z,3.17
2019-01-11T14:23:05.600Z,4.57
2019-01-11T14:25:34.844Z,3.67
2019-01-11T14:28:04.088Z,3.80
2019-01-11T14:30:33.363Z,3.90
2019-01-11T14:33:02.596Z,5.27
2019-01-11T14:35:31.813Z,3.57
2019-01-11T14:38:01.045Z,4.10
2019-01-11T14:40:32.753Z,3.93
2019-01-11T14:43:03.344Z,4.67
2019-01-11T14:45:32.672Z,4.53
2019-01-11T14:48:01.996Z,4.37
2019-01-11T14:50:31.212Z,4.00
2019-01-11T14:53:00.572Z,3.93
2019-01-11T14:55:29.861Z,3.93
2019-01-11T14:58:02.651Z,3.90
2019-01-11T15:00:32.822Z,4.00
2019-01-11T15:03:02.466Z,4.40
2019-01-11T15:05:32.287Z,4.03
2019-01-11T15:08:01.885Z,4.30
2019-01-11T15:10:31.997Z,4.80
2019-01-11T15:13:02.346Z,3.97
2019-01-11T15:15:31.959Z,3.90
2019-01-11T15:18:01.170Z,4.30
2019-01-11T15:20:32.106Z,4.70
2019-01-11T15:23:01.981Z,4.20
2019-01-11T15:25:32.374Z,4.57
2019-01-11T15:28:01.857Z,5.07
2019-01-11T15:30:32.190Z,4.67
2019-01-11T15:33:01.743Z,4.40
2019-01-11T15:35:31.829Z,4.53
2019-01-11T15:38:01.936Z,5.07
2019-01-11T15:40:36.487Z,5.30
2019-01-11T15:43:04.251Z,4.40
2019-01-11T15:45:34.314Z,4.50
2019-01-11T15:48:07.190Z,5.07
2019-01-11T15:51:05.436Z,4.80
2019-01-11T15:53:36.879Z,5.37
2019-01-11T15:56:08.629Z,5.17
2019-01-11T15:58:37.925Z,4.63
2019-01-11T16:01:07.145Z,5.40
2019-01-11T16:03:36.370Z,4.93
2019-01-11T16:06:40.799Z,5.73
2019-01-11T16:10:02.516Z,5.10
2019-01-11T16:13:10.236Z,6.47
2019-01-11T16:16:22.420Z,5.33
2019-01-11T16:18:53.268Z,4.67
2019-01-11T16:21:22.466Z,6.00
2019-01-11T16:23:51.689Z,5.43
2019-01-11T16:26:20.940Z,5.73
2019-01-11T16:28:50.251Z,5.57
2019-01-11T16:31:19.476Z,6.33
2019-01-11T16:33:48.708Z,6.70
2019-01-11T16:36:17.927Z,6.10
2019-01-11T16:38:47.170Z,5.77
2019-01-11T16:41:16.376Z,5.23
2019-01-11T16:43:45.754Z,6.07
2019-01-11T16:46:14.983Z,5.67
2019-01-11T16:48:44.260Z,7.37
2019-01-11T16:51:13.444Z,5.57
2019-01-11T16:53:42.687Z,6.37
2019-01-11T16:56:11.885Z,6.77
2019-01-11T16:58:41.836Z,6.97
2019-01-11T17:01:11.005Z,7.27
2019-01-11T17:03:40.259Z,7.13
2019-01-11T17:06:10.349Z,7.37
2019-01-11T17:08:39.575Z,6.37
2019-01-11T17:11:08.856Z,7.13
2019-01-11T17:13:40.612Z,6.20
2019-01-11T17:16:08.992Z,6.17
2019-01-11T17:18:38.259Z,7.10
2019-01-11T17:21:07.557Z,6.73
2019-01-11T17:23:36.761Z,7.23
2019-01-11T17:26:05.986Z,6.53
2019-01-11T17:28:35.249Z,7.47
2019-01-11T17:31:04.862Z,7.07
2019-01-11T17:33:34.057Z,7.97
2019-01-11T17:36:03.272Z,8.40
2019-01-11T17:38:32.488Z,7.27
2019-01-11T17:41:01.734Z,7.10
2019-01-11T17:43:30.984Z,6.80
2019-01-11T17:46:00.282Z,7.70
2019-01-11T17:48:29.505Z,7.27
2019-01-11T17:50:58.733Z,7.07
2019-01-11T17:53:27.944Z,8.40
2019-01-11T17:55:57.280Z,6.30
2019-01-11T17:58:26.665Z,7.90
2019-01-11T18:00:55.977Z,8.43
2019-01-11T18:03:25.439Z,8.67
2019-01-11T18:05:54.734Z,8.97
2019-01-11T18:08:23.993Z,7.87
2019-01-11T18:10:53.232Z,7.57
2019-01-11T18:13:22.473Z,7.83
2019-01-11T18:15:51.729Z,8.27
2019-01-11T18:18:20.940Z,7.93
2019-01-11T18:20:50.880Z,8.27
2019-01-11T18:23:20.092Z,8.00
2019-01-11T18:25:49.328Z,8.00
2019-01-11T18:28:18.538Z,7.83
2019-01-11T18:30:47.868Z,6.50
2019-01-11T18:33:17.072Z,8.33
2019-01-11T18:35:46.290Z,7.73
2019-01-11T18:38:15.508Z,9.83
2019-01-11T18:40:44.741Z,7.23
2019-01-11T18:43:13.957Z,7.20
2019-01-11T18:45:43.217Z,7.80
2019-01-11T18:48:12.433Z,7.50
2019-01-11T18:50:41.667Z,8.87
2019-01-11T18:53:13.910Z,8.37
2019-01-11T18:55:41.832Z,8.73
2019-01-11T18:58:11.050Z,8.17
2019-01-11T19:00:40.392Z,7.57
2019-01-11T19:03:09.577Z,8.83
2019-01-11T19:05:38.817Z,7.70
2019-01-11T19:08:08.036Z,8.00
2019-01-11T19:10:37.236Z,8.10
2019-01-11T19:13:06.564Z,8.20
2019-01-11T19:15:35.784Z,7.53
2019-01-11T19:18:04.970Z,7.87
2019-01-11T19:20:34.192Z,8.27
2019-01-11T19:23:04.244Z,8.67
2019-01-11T19:25:33.513Z,8.40
2019-01-11T19:28:02.707Z,8.40
2019-01-11T19:30:31.920Z,8.50
2019-01-11T19:33:01.180Z,9.13
2019-01-11T19:35:30.526Z,9.17
2019-01-11T19:37:59.742Z,9.03
2019-01-11T19:40:28.983Z,8.93
2019-01-11T19:42:58.249Z,9.07
2019-01-11T19:45:27.524Z,7.53
2019-01-11T19:47:56.735Z,8.47
2019-01-11T19:50:26.261Z,8.67
2019-01-11T19:52:55.495Z,7.97
2019-01-11T19:55:24.714Z,8.27
2019-01-11T19:57:53.941Z,8.53
2019-01-11T20:00:28.260Z,7.73
2019-01-11T20:02:57.532Z,8.33
2019-01-11T20:05:27.625Z,8.57
2019-01-11T20:07:56.851Z,8.80
2019-01-11T20:10:33.637Z,7.87
2019-01-11T20:13:02.874Z,8.40
2019-01-11T20:15:32.413Z,7.80
2019-01-11T20:18:01.682Z,8.13
2019-01-11T20:20:30.924Z,8.97
2019-01-11T20:23:02.421Z,7.33
2019-01-11T20:25:31.028Z,7.83
2019-01-11T20:28:00.303Z,7.47
2019-01-11T20:30:29.729Z,7.03
2019-01-11T20:32:58.933Z,7.77
2019-01-11T20:35:28.404Z,7.30
2019-01-11T20:37:57.669Z,8.77
2019-01-11T20:40:26.965Z,7.07
2019-01-11T20:42:56.172Z,7.10
2019-01-11T20:45:25.476Z,7.83
2019-01-11T20:47:54.699Z,7.33
2019-01-11T20:50:25.931Z,9.67
2019-01-11T20:52:55.701Z,8.20
2019-01-11T20:55:25.036Z,8.30
2019-01-11T20:57:54.404Z,8.20
2019-01-11T21:00:28.671Z,8.93
2019-01-11T21:02:58.045Z,7.93
2019-01-11T21:05:28.322Z,8.60
2019-01-11T21:07:57.670Z,8.60
2019-01-11T21:10:27.199Z,8.13
2019-01-11T21:12:56.382Z,7.83
2019-01-11T21:15:25.852Z,7.83
2019-01-11T21:17:55.049Z,7.33
2019-01-11T21:20:24.348Z,6.90
2019-01-11T21:22:53.550Z,8.57
2019-01-11T21:25:22.792Z,6.70
2019-01-11T21:27:52.242Z,7.90
2019-01-11T21:30:31.330Z,8.50
2019-01-11T21:33:00.993Z,6.90
2019-01-11T21:35:30.412Z,6.87
2019-01-11T21:37:59.623Z,6.23
2019-01-11T21:40:28.856Z,7.27
2019-01-11T21:42:58.215Z,7.67
2019-01-11T21:45:30.138Z,7.33
2019-01-11T21:48:01.278Z,7.20
2019-01-11T21:50:30.485Z,7.67
2019-01-11T21:52:59.741Z,8.20
2019-01-11T21:55:29.000Z,5.97
2019-01-11T21:57:58.261Z,7.00
2019-01-11T22:00:39.321Z,6.37
2019-01-11T22:03:11.814Z,6.57
2019-01-11T22:05:41.026Z,7.17
2019-01-11T22:08:10.257Z,6.83
2019-01-11T22:10:39.611Z,7.10
2019-01-11T22:13:08.818Z,7.27
2019-01-11T22:15:38.048Z,7.20
2019-01-11T22:18:07.268Z,7.30
2019-01-11T22:20:36.503Z,6.07
2019-01-11T22:23:05.749Z,7.40
2019-01-11T22:25:34.939Z,8.00
2019-01-11T22:28:04.552Z,7.23
2019-01-11T22:30:33.786Z,7.03
2019-01-11T22:33:03.035Z,6.23
2019-01-11T22:35:32.274Z,6.03
2019-01-11T22:38:01.477Z,6.87
2019-01-11T22:40:30.700Z,7.93
2019-01-11T22:43:00.600Z,6.23
2019-01-11T22:45:30.092Z,6.87
2019-01-11T22:47:59.333Z,7.93
2019-01-11T22:50:28.552Z,8.13
2019-01-11T22:52:57.764Z,7.50
2019-01-11T22:55:26.959Z,6.23
2019-01-11T22:57:56.165Z,7.40
2019-01-11T23:00:45.326Z,6.47
2019-01-11T23:03:18.445Z,5.97
2019-01-11T23:05:47.920Z,6.60
2019-01-11T23:08:20.226Z,6.60
2019-01-11T23:11:17.304Z,6.37
2019-01-11T23:13:46.501Z,7.07
2019-01-11T23:16:23.549Z,6.77
2019-01-11T23:18:54.565Z,7.17
2019-01-11T23:21:23.784Z,7.53
2019-01-11T23:23:53.020Z,6.43
2019-01-11T23:26:22.204Z,7.13
2019-01-11T23:28:51.486Z,6.70
2019-01-11T23:31:20.740Z,6.70
2019-01-11T23:33:50.026Z,6.43
2019-01-11T23:36:19.230Z,7.73
2019-01-11T23:38:48.560Z,5.67
2019-01-11T23:41:17.792Z,6.30
2019-01-11T23:43:47.004Z,5.87
2019-01-11T23:46:16.243Z,7.30
2019-01-11T23:48:45.462Z,7.13
2019-01-11T23:51:14.668Z,6.20
2019-01-11T23:53:43.896Z,6.30
2019-01-11T23:56:13.128Z,6.50
2019-01-11T23:58:42.328Z,6.70
